Stations météo

Publicité
Lus-La-Croix-Haute, France (7587): Température de l'air & dewpoint: 11.02.2019 17:00:00 - 17.02.2019 17:00:00 (CET)Lus-La-Croix-Haute, France (7587): Vitesse du vent & gusts: 11.02.2019 17:00:00 - 17.02.2019 17:00:00 (CET)Lus-La-Croix-Haute, France (7587): Direction du vent: 11.02.2019 17:00:00 - 17.02.2019 17:00:00 (CET)Lus-La-Croix-Haute, France (7587): Quantités de précipitations: 11.02.2019 17:00:00 - 17.02.2019 17:00:00 (CET)
Date & Time tt [°C] td [°C] ff [km/h] ff [knt] fx [km/h] fx [knt] dd rr [mm]
17.02.2019 17:00:00 12,1 -5,4 16 9 34 18 SSW 0,0
17.02.2019 16:00:00 13,3 -5,3 13 7 35 19 SSW 0,0
17.02.2019 15:00:00 13,7 -6,0 11 6 29 16 SSW 0,0
17.02.2019 14:00:00 13,4 -5,7 11 6 34 18 SW 0,0
17.02.2019 13:00:00 13,0 -6,1 13 7 28 15 SSW -
17.02.2019 12:00:00 11,1 -5,0 4 2 13 7 NNE 0,0
17.02.2019 11:00:00 4,4 -2,5 0 0 5 3 N 0,0
17.02.2019 10:00:00 0,5 -1,7 0 0 4 2 N 0,0
17.02.2019 09:00:00 -2,5 -2,8 0 0 8 4 N 0,0
17.02.2019 08:00:00 -4,5 -5,3 0 0 4 2 N 0,0
17.02.2019 07:00:00 -4,4 -5,2 0 0 5 3 N -
17.02.2019 06:00:00 -4,1 -4,9 0 0 4 2 N 0,0
17.02.2019 05:00:00 -3,7 -4,5 0 0 4 2 N 0,0
17.02.2019 04:00:00 -3,4 -4,4 2 1 8 4 N 0,0
17.02.2019 03:00:00 -3,0 -4,0 0 0 4 2 N 0,0
17.02.2019 02:00:00 -2,5 -3,8 2 1 5 3 NNW 0,0
17.02.2019 01:00:00 -1,9 -3,3 0 0 5 3 N -
17.02.2019 00:00:00 -1,7 -3,6 2 1 4 2 SSE 0,0
16.02.2019 23:00:00 -0,9 -3,3 0 0 4 2 N 0,0
16.02.2019 22:00:00 0,0 -3,0 2 1 5 3 SE 0,0
16.02.2019 21:00:00 1,0 -2,8 2 1 5 3 SE 0,0
16.02.2019 20:00:00 2,5 -2,6 0 0 5 3 N 0,0
16.02.2019 19:00:00 4,1 -2,5 4 2 5 3 SE -
16.02.2019 18:00:00 6,7 -3,0 2 1 8 4 SE 0,0
16.02.2019 17:00:00 14,3 -3,5 4 2 16 9 WNW 0,0
16.02.2019 16:00:00 15,3 -3,1 9 5 22 12 S 0,0
16.02.2019 15:00:00 15,8 -3,2 8 4 15 8 S 0,0
16.02.2019 14:00:00 16,0 -4,6 4 2 9 5 S 0,0
16.02.2019 13:00:00 14,2 -4,6 0 0 8 4 N -
16.02.2019 12:00:00 10,6 -3,9 0 0 5 3 N 0,0
16.02.2019 11:00:00 7,1 -4,4 0 0 4 2 N 0,0
16.02.2019 10:00:00 2,9 -4,3 0 0 5 3 N 0,0
16.02.2019 09:00:00 -1,7 -5,0 0 0 5 3 N 0,0
16.02.2019 08:00:00 -3,5 -6,0 0 0 5 3 N 0,0
16.02.2019 07:00:00 -3,7 -6,2 0 0 4 2 N -
16.02.2019 06:00:00 -3,7 -6,0 0 0 4 2 N 0,0
16.02.2019 05:00:00 -3,3 -6,1 0 0 4 2 N 0,0
16.02.2019 04:00:00 -3,2 -5,8 0 0 4 2 N 0,0
16.02.2019 03:00:00 -2,6 -5,9 0 0 4 2 N 0,0
16.02.2019 02:00:00 -2,8 -5,6 0 0 5 3 N 0,0
16.02.2019 01:00:00 -1,9 -5,6 0 0 5 3 N -
16.02.2019 00:00:00 -1,7 -4,9 0 0 4 2 N 0,0
15.02.2019 23:00:00 -0,8 -4,7 0 0 5 3 N 0,0
15.02.2019 22:00:00 0,3 -4,3 2 1 5 3 NNW 0,0
15.02.2019 21:00:00 1,3 -4,4 0 0 5 3 N 0,0
15.02.2019 20:00:00 2,2 -4,1 0 0 4 2 N 0,0
15.02.2019 19:00:00 3,9 -4,1 2 1 5 3 SE -
15.02.2019 18:00:00 6,4 -4,4 4 2 8 4 SE 0,0
15.02.2019 17:00:00 13,1 -5,0 2 1 9 5 S 0,0
15.02.2019 16:00:00 15,6 -3,9 5 3 9 5 SE 0,0
15.02.2019 15:00:00 16,4 -2,7 4 2 8 4 SE 0,0
15.02.2019 14:00:00 15,5 -4,5 4 2 8 4 S 0,0
15.02.2019 13:00:00 13,6 -3,7 2 1 8 4 S -
15.02.2019 12:00:00 10,6 -4,3 0 0 4 2 N 0,0
15.02.2019 11:00:00 6,8 -3,7 0 0 5 3 N 0,0
15.02.2019 10:00:00 2,4 -4,8 0 0 4 2 N 0,0
15.02.2019 09:00:00 -2,5 -5,3 2 1 5 3 N 0,0
15.02.2019 08:00:00 -3,7 -6,0 0 0 5 3 N 0,0
15.02.2019 07:00:00 -3,9 -6,1 2 1 5 3 NNW -
15.02.2019 06:00:00 -3,6 -5,6 0 0 5 3 N 0,0
15.02.2019 05:00:00 -3,3 -5,6 2 1 5 3 N 0,0
15.02.2019 04:00:00 -3,1 -5,1 0 0 4 2 N 0,0
15.02.2019 03:00:00 -3,2 -5,1 0 0 5 3 N 0,0
15.02.2019 02:00:00 -2,6 -4,8 0 0 8 4 N 0,0
15.02.2019 01:00:00 -2,6 -4,8 0 0 4 2 N -
15.02.2019 00:00:00 -2,3 -5,0 0 0 9 5 N 0,0
14.02.2019 23:00:00 -1,8 -4,5 2 1 4 2 N 0,0
14.02.2019 22:00:00 -0,9 -4,3 0 0 4 2 N 0,0
14.02.2019 21:00:00 0,0 -3,9 2 1 8 4 SE 0,0
14.02.2019 20:00:00 0,9 -3,4 0 0 5 3 N 0,0
14.02.2019 19:00:00 2,8 -3,6 0 0 8 4 N -
14.02.2019 18:00:00 4,8 -3,7 4 2 8 4 SE 0,0
14.02.2019 17:00:00 11,9 -3,5 2 1 9 5 SSE 0,0
14.02.2019 16:00:00 13,6 -4,1 2 1 8 4 SW 0,0
14.02.2019 15:00:00 14,2 -4,1 2 1 8 4 SE 0,0
14.02.2019 14:00:00 15,3 -6,9 4 2 8 4 SSE 0,0
14.02.2019 13:00:00 11,7 -4,1 2 1 8 4 SSE -
14.02.2019 12:00:00 8,2 -4,6 2 1 8 4 SSE 0,0
14.02.2019 11:00:00 4,1 -5,1 0 0 5 3 N 0,0
14.02.2019 10:00:00 0,3 -5,1 0 0 4 2 N 0,0
14.02.2019 09:00:00 -4,2 -5,2 0 0 4 2 N 0,0
14.02.2019 08:00:00 -6,0 -7,2 0 0 4 2 N 0,0
14.02.2019 07:00:00 -6,0 -7,5 0 0 4 2 N -
14.02.2019 06:00:00 -5,7 -7,5 0 0 5 3 N 0,0
14.02.2019 05:00:00 -5,8 -7,6 0 0 4 2 N 0,0
14.02.2019 04:00:00 -4,7 -7,0 4 2 4 2 N 0,0
14.02.2019 03:00:00 -4,8 -6,5 0 0 4 2 N 0,0
14.02.2019 02:00:00 -4,8 -6,6 0 0 4 2 N 0,0
14.02.2019 01:00:00 -4,6 -6,7 2 1 5 3 SSE -
14.02.2019 00:00:00 -3,7 -6,3 2 1 8 4 WNW 0,0
13.02.2019 23:00:00 -3,4 -5,9 2 1 4 2 SSE 0,0
13.02.2019 22:00:00 -2,7 -5,0 2 1 4 2 N 0,0
13.02.2019 21:00:00 -1,8 -4,6 0 0 4 2 N 0,0
13.02.2019 20:00:00 -0,5 -4,4 0 0 5 3 N 0,0
13.02.2019 19:00:00 0,4 -4,1 4 2 5 3 SE -
13.02.2019 18:00:00 2,9 -4,6 4 2 8 4 SSE 0,0
13.02.2019 17:00:00 9,1 -4,1 2 1 9 5 WSW 0,0
13.02.2019 16:00:00 10,9 -3,6 4 2 8 4 SSE 0,0
13.02.2019 15:00:00 10,7 -4,2 4 2 8 4 S 0,0
13.02.2019 14:00:00 10,4 -5,6 2 1 9 5 S 0,2
13.02.2019 13:00:00 8,7 -5,2 2 1 8 4 W -
13.02.2019 12:00:00 5,7 -4,5 2 1 5 3 S 0,0
13.02.2019 11:00:00 1,2 -4,3 0 0 4 2 N 0,2
13.02.2019 10:00:00 -3,2 -5,8 0 0 4 2 N 0,0
13.02.2019 09:00:00 -6,4 -6,9 0 0 4 2 N 0,0
13.02.2019 08:00:00 -7,3 -8,1 2 1 5 3 NNW 0,0
13.02.2019 07:00:00 -7,4 -8,5 0 0 8 4 N -
13.02.2019 06:00:00 -7,0 -8,4 0 0 5 3 N 0,0
13.02.2019 05:00:00 -6,5 -8,0 2 1 8 4 S 0,0
13.02.2019 04:00:00 -5,1 -7,1 5 3 8 4 N 0,0
13.02.2019 03:00:00 -4,9 -6,7 2 1 9 5 E 0,0
13.02.2019 02:00:00 -4,6 -6,7 8 4 11 6 ESE 0,0
13.02.2019 01:00:00 -3,6 -6,1 4 2 18 10 E -
13.02.2019 00:00:00 -2,6 -4,6 4 2 26 14 NE 0,0
12.02.2019 23:00:00 -1,6 -4,6 13 7 41 22 NW 0,0
12.02.2019 22:00:00 -1,4 -4,4 16 9 34 18 NW 0,0
12.02.2019 21:00:00 -0,8 -4,2 5 3 37 20 ESE 0,0
12.02.2019 20:00:00 -0,7 -5,3 8 4 41 22 WSW 0,0
12.02.2019 19:00:00 -1,3 -5,7 5 3 29 16 NNE -
12.02.2019 18:00:00 -1,4 -4,1 15 8 39 21 NW 0,0
12.02.2019 17:00:00 -0,9 -4,1 18 10 39 21 NNW 0,0
12.02.2019 16:00:00 0,7 -3,4 18 10 44 24 NW 0,0
12.02.2019 15:00:00 -0,1 -4,9 18 10 48 26 NW 0,0
12.02.2019 14:00:00 0,0 -4,3 18 10 46 25 NW 0,4
12.02.2019 13:00:00 -1,4 -4,6 26 14 48 26 NW -
12.02.2019 12:00:00 -1,1 -5,1 24 13 42 23 NW 0,8
12.02.2019 11:00:00 -0,4 -5,2 15 8 52 28 NNW 1,0
12.02.2019 10:00:00 -1,7 -5,9 15 8 39 21 NNW 0,6
12.02.2019 09:00:00 -2,5 -4,8 22 12 37 20 NW 0,0
12.02.2019 08:00:00 -2,8 -4,4 18 10 34 18 NW 0,0
12.02.2019 07:00:00 -2,3 -4,3 9 5 29 16 NW -
12.02.2019 06:00:00 -2,0 -5,0 8 4 41 22 NNE 0,0
12.02.2019 05:00:00 -1,7 -4,5 15 8 48 26 N 0,0
12.02.2019 04:00:00 -1,5 -4,3 18 10 48 26 N 0,0
12.02.2019 03:00:00 -1,6 -4,4 13 7 48 26 N 0,0
12.02.2019 02:00:00 -1,4 -4,4 18 10 48 26 N 0,0
12.02.2019 01:00:00 -1,2 -4,4 16 9 41 22 N -
12.02.2019 00:00:00 -1,0 -3,8 16 9 52 28 N 0,0
11.02.2019 23:00:00 -1,2 -3,9 21 11 57 31 N 0,0
11.02.2019 22:00:00 -1,2 -2,5 29 16 55 30 NNW 0,0
11.02.2019 21:00:00 -1,1 -2,4 18 10 57 31 NNW 0,0
11.02.2019 20:00:00 -1,3 -2,4 26 14 55 30 NNW 0,0
11.02.2019 19:00:00 -1,4 -2,8 21 11 44 24 NW -
11.02.2019 18:00:00 -1,4 -2,7 18 10 44 24 NNW 0,2
11.02.2019 17:00:00 -1,2 -2,6 21 11 50 27 NNW 0,8

tt = Température de l'air
td = dewpoint
ff = Vitesse du vent
fx = gusts
dd = Direction du vent
rr = Quantités de précipitations

stations d'obs. à proximité